createdAt,value
2019-04-23T00:00:05.266Z,98993.28
2019-04-23T00:02:44.413Z,98997.59
2019-04-23T00:05:22.938Z,98991.69
2019-04-23T00:10:24.881Z,98992.39
2019-04-23T00:12:52.964Z,98974.00
2019-04-23T00:15:53.195Z,98969.44
2019-04-23T00:18:30.187Z,98969.66
2019-04-23T00:20:57.767Z,98972.87
2019-04-23T00:23:34.728Z,98971.09
2019-04-23T00:28:51.960Z,98971.02
2019-04-23T00:33:57.425Z,98961.14
2019-04-23T00:36:32.523Z,98963.16
2019-04-23T00:38:59.292Z,98961.95
2019-04-23T00:41:36.298Z,98956.41
2019-04-23T00:49:10.732Z,98950.49
2019-04-23T00:51:50.152Z,98953.73
2019-04-23T00:54:20.712Z,98946.95
2019-04-23T00:56:57.082Z,98941.67
2019-04-23T00:59:28.267Z,98941.80
2019-04-23T01:01:57.924Z,98936.86
2019-04-23T01:04:34.172Z,98933.37
2019-04-23T01:07:04.448Z,98939.92
2019-04-23T01:09:42.270Z,98939.58
2019-04-23T01:12:19.116Z,98931.31
2019-04-23T01:14:48.229Z,98938.84
2019-04-23T01:17:30.189Z,98928.58
2019-04-23T01:20:17.188Z,98929.98
2019-04-23T01:22:14.612Z,98935.98
2019-04-23T01:25:11.031Z,98926.86
2019-04-23T01:28:03.968Z,98926.38
2019-04-23T01:30:38.734Z,98924.76
2019-04-23T01:33:09.955Z,98924.74
2019-04-23T01:35:45.098Z,98928.20
2019-04-23T01:38:11.470Z,98922.91
2019-04-23T01:41:01.775Z,98918.34
2019-04-23T01:43:38.153Z,98912.30
2019-04-23T01:45:50.262Z,98915.04
2019-04-23T01:48:26.148Z,98908.19
2019-04-23T01:50:56.106Z,98909.85
2019-04-23T01:53:37.059Z,98911.27
2019-04-23T01:56:09.153Z,98903.35
2019-04-23T01:58:48.148Z,98905.49
2019-04-23T02:01:11.783Z,98897.47
2019-04-23T02:03:46.636Z,98896.91
2019-04-23T02:06:21.965Z,98906.35
2019-04-23T02:08:55.265Z,98895.89
2019-04-23T02:11:25.525Z,98894.66
2019-04-23T02:13:55.051Z,98891.91
2019-04-23T02:16:33.874Z,98886.41
2019-04-23T02:19:03.347Z,98890.86
2019-04-23T02:21:41.450Z,98885.35
2019-04-23T02:24:14.442Z,98885.70
2019-04-23T02:26:46.755Z,98885.77
2019-04-23T02:29:28.729Z,98884.77
2019-04-23T02:34:41.015Z,98881.08
2019-04-23T02:37:15.127Z,98882.83
2019-04-23T02:39:57.334Z,98880.41
2019-04-23T02:50:01.724Z,98871.08
2019-04-23T02:52:21.736Z,98861.04
2019-04-23T02:54:57.129Z,98862.67
2019-04-23T02:57:47.552Z,98868.53
2019-04-23T03:02:40.908Z,98856.34
2019-04-23T03:05:13.569Z,98852.36
2019-04-23T03:10:16.413Z,98845.19
2019-04-23T03:13:09.627Z,98847.55
2019-04-23T03:16:00.711Z,98848.98
2019-04-23T03:18:53.744Z,98850.23
2019-04-23T03:24:11.119Z,98844.62
2019-04-23T03:27:08.137Z,98848.47
2019-04-23T03:29:21.862Z,98845.25
2019-04-23T03:35:10.270Z,98840.65
2019-04-23T03:39:47.642Z,98844.98
2019-04-23T03:42:03.902Z,98836.01
2019-04-23T03:44:45.290Z,98829.42
2019-04-23T03:47:11.439Z,98836.12
2019-04-23T03:59:55.149Z,98823.58
2019-04-23T04:05:06.083Z,98816.68
2019-04-23T04:07:36.262Z,98815.33
2019-04-23T04:10:10.778Z,98824.42
2019-04-23T04:12:41.467Z,98818.89
2019-04-23T04:15:24.870Z,98818.63
2019-04-23T04:17:48.702Z,98824.27
2019-04-23T04:20:29.266Z,98824.73
2019-04-23T04:23:00.055Z,98821.14
2019-04-23T04:28:01.327Z,98822.41
2019-04-23T04:33:34.066Z,98824.66
2019-04-23T04:36:04.791Z,98818.94
2019-04-23T04:41:13.548Z,98819.36
2019-04-23T04:48:44.266Z,98812.11
2019-04-23T04:56:27.582Z,98805.67
2019-04-23T04:58:53.290Z,98810.09
2019-04-23T05:01:25.940Z,98805.80
2019-04-23T05:03:45.998Z,98809.16
2019-04-23T05:06:39.422Z,98799.98
2019-04-23T05:09:17.095Z,98800.62
2019-04-23T05:14:08.575Z,98789.13
2019-04-23T05:16:43.236Z,98799.55
2019-04-23T05:19:29.691Z,98794.78
2019-04-23T05:24:21.665Z,98794.66
2019-04-23T05:26:51.665Z,98798.09
2019-04-23T05:29:25.385Z,98797.55
2019-04-23T05:31:58.186Z,98800.83
2019-04-23T05:37:06.073Z,98798.48
2019-04-23T05:42:13.984Z,98806.27
2019-04-23T05:44:43.264Z,98797.59
2019-04-23T05:47:25.445Z,98798.46
2019-04-23T05:49:54.713Z,98796.95
2019-04-23T05:52:24.493Z,98798.20
2019-04-23T05:55:01.555Z,98790.70
2019-04-23T05:57:28.554Z,98785.84
2019-04-23T06:00:04.192Z,98787.33
2019-04-23T06:02:45.350Z,98784.62
2019-04-23T06:05:08.880Z,98786.80
2019-04-23T06:07:45.711Z,98781.90
2019-04-23T06:10:11.041Z,98790.07
2019-04-23T06:12:45.340Z,98781.13
2019-04-23T06:15:20.218Z,98782.70
2019-04-23T06:17:54.184Z,98780.45
2019-04-23T06:20:35.046Z,98777.61
2019-04-23T06:23:06.047Z,98780.27
2019-04-23T06:28:08.134Z,98771.63
2019-04-23T06:33:14.657Z,98774.67
2019-04-23T06:35:45.195Z,98779.20
2019-04-23T06:40:59.518Z,98768.88
2019-04-23T06:43:38.764Z,98768.88
2019-04-23T06:46:03.645Z,98769.81
2019-04-23T06:48:35.267Z,98765.57
2019-04-23T06:51:15.988Z,98756.98
2019-04-23T06:53:37.402Z,98758.89
2019-04-23T06:56:21.124Z,98754.16
2019-04-23T06:58:45.713Z,98759.88
2019-04-23T07:01:19.236Z,98755.42
2019-04-23T07:04:04.943Z,98751.08
2019-04-23T07:09:09.911Z,98751.55
2019-04-23T07:11:34.135Z,98749.27
2019-04-23T07:13:58.496Z,98747.03
2019-04-23T07:19:18.390Z,98747.36
2019-04-23T07:21:41.743Z,98736.92
2019-04-23T07:24:28.463Z,98737.83
2019-04-23T07:26:42.083Z,98734.71
2019-04-23T07:29:26.307Z,98732.69
2019-04-23T07:34:26.661Z,98731.18
2019-04-23T07:37:00.158Z,98728.48
2019-04-23T07:42:29.610Z,98717.78
2019-04-23T07:45:17.403Z,98712.42
2019-04-23T07:48:10.836Z,98714.77
2019-04-23T07:53:26.145Z,98699.87
2019-04-23T08:03:22.652Z,98688.70
2019-04-23T08:05:55.861Z,98698.89
2019-04-23T08:13:50.400Z,98679.56
2019-04-23T08:21:32.115Z,98679.75
2019-04-23T08:24:20.116Z,98681.66
2019-04-23T08:27:04.532Z,98664.23
2019-04-23T08:29:50.388Z,98669.41
2019-04-23T08:34:58.824Z,98666.11
2019-04-23T08:37:54.345Z,98654.75
2019-04-23T08:42:49.641Z,98651.06
2019-04-23T08:50:44.939Z,98635.69
2019-04-23T09:01:06.695Z,98640.80
2019-04-23T09:03:34.421Z,98634.00
2019-04-23T09:08:39.311Z,98623.64
2019-04-23T09:11:30.456Z,98615.45
2019-04-23T09:16:22.140Z,98617.55
2019-04-23T09:18:53.112Z,98607.61
2019-04-23T09:21:30.985Z,98608.48
2019-04-23T09:23:58.508Z,98606.81
2019-04-23T09:26:36.658Z,98603.97
2019-04-23T09:29:04.607Z,98599.03
2019-04-23T09:32:07.635Z,98606.66
2019-04-23T09:34:43.152Z,98609.91
2019-04-23T09:37:40.480Z,98605.33
2019-04-23T09:40:46.886Z,98594.39
2019-04-23T09:43:12.196Z,98605.70
2019-04-23T09:46:09.690Z,98587.03
2019-04-23T09:48:47.164Z,98589.52
2019-04-23T09:51:15.618Z,98583.26
2019-04-23T09:53:40.013Z,98586.18
2019-04-23T09:56:14.226Z,98583.48
2019-04-23T09:58:51.822Z,98584.65
2019-04-23T10:03:54.720Z,98575.43
2019-04-23T10:06:19.039Z,98569.56
2019-04-23T10:08:51.959Z,98573.95
2019-04-23T10:11:19.914Z,98556.09
2019-04-23T10:13:52.601Z,98563.00
2019-04-23T10:16:27.617Z,98560.30
2019-04-23T10:18:57.376Z,98555.66
2019-04-23T10:21:29.302Z,98553.80
2019-04-23T10:24:01.396Z,98555.30
2019-04-23T10:26:34.233Z,98554.96
2019-04-23T10:29:11.792Z,98552.03
2019-04-23T10:31:43.923Z,98545.33
2019-04-23T10:34:19.044Z,98546.80
2019-04-23T10:36:51.507Z,98524.17
2019-04-23T10:39:29.588Z,98543.06
2019-04-23T10:41:57.591Z,98534.03
2019-04-23T10:44:55.425Z,98539.51
2019-04-23T10:48:26.565Z,98532.04
2019-04-23T10:53:37.862Z,98540.25
2019-04-23T10:58:36.565Z,98541.89
2019-04-23T11:01:14.905Z,98534.53
2019-04-23T11:04:02.447Z,98543.67
2019-04-23T11:06:23.521Z,98540.97
2019-04-23T11:08:48.250Z,98543.04
2019-04-23T11:11:30.653Z,98537.59
2019-04-23T11:14:01.194Z,98534.02
2019-04-23T11:16:49.551Z,98527.34
2019-04-23T11:19:15.631Z,98533.00
2019-04-23T11:21:40.770Z,98541.34
2019-04-23T11:24:36.060Z,98533.75
2019-04-23T11:29:27.320Z,98527.22
2019-04-23T11:31:52.316Z,98523.65
2019-04-23T11:34:50.442Z,98518.30
2019-04-23T11:37:03.389Z,98516.13
2019-04-23T11:39:39.780Z,98515.79
2019-04-23T11:42:22.911Z,98520.00
2019-04-23T11:47:42.507Z,98515.67
2019-04-23T11:54:53.507Z,98519.48
2019-04-23T12:02:50.079Z,98510.27
2019-04-23T12:05:54.715Z,98509.28
2019-04-23T12:11:49.766Z,98510.62
2019-04-23T12:14:21.894Z,98507.59
2019-04-23T12:29:49.090Z,98499.34
2019-04-23T12:32:42.547Z,98501.63
2019-04-23T12:37:45.007Z,98494.44
2019-04-23T12:50:45.022Z,98479.19
2019-04-23T12:53:10.324Z,98472.92
2019-04-23T12:55:41.722Z,98477.69
2019-04-23T12:58:19.290Z,98469.29
2019-04-23T13:05:49.120Z,98452.41
2019-04-23T13:08:33.603Z,98449.41
2019-04-23T13:10:57.278Z,98439.37
2019-04-23T13:16:03.555Z,98439.05
2019-04-23T13:18:38.135Z,98435.46
2019-04-23T13:21:31.423Z,98422.05
2019-04-23T13:23:40.991Z,98424.27
2019-04-23T13:26:11.770Z,98412.12
2019-04-23T13:28:51.228Z,98419.05
2019-04-23T13:31:22.141Z,98413.89
2019-04-23T13:33:58.645Z,98408.70
2019-04-23T13:36:36.255Z,98411.20
2019-04-23T13:39:10.641Z,98407.25
2019-04-23T13:41:52.110Z,98411.09
2019-04-23T13:44:08.436Z,98411.39
2019-04-23T13:46:40.542Z,98406.19
2019-04-23T13:49:18.381Z,98407.21
2019-04-23T13:51:54.979Z,98401.22
2019-04-23T13:54:46.454Z,98398.91
2019-04-23T13:59:52.270Z,98395.91
2019-04-23T14:02:17.057Z,98394.69
2019-04-23T14:05:06.288Z,98389.33
2019-04-23T14:07:50.959Z,98388.11
2019-04-23T14:12:53.426Z,98391.28
2019-04-23T14:18:17.002Z,98376.53
2019-04-23T14:20:28.095Z,98375.31
2019-04-23T14:23:09.430Z,98371.09
2019-04-23T14:25:40.077Z,98364.92
2019-04-23T14:30:46.680Z,98364.45
2019-04-23T14:33:20.112Z,98362.69
2019-04-23T14:35:44.963Z,98360.20
2019-04-23T14:41:05.246Z,98349.47
2019-04-23T14:43:31.465Z,98347.19
2019-04-23T14:49:04.159Z,98341.64
2019-04-23T14:54:12.867Z,98346.03
2019-04-23T14:56:46.363Z,98349.66
2019-04-23T14:59:10.652Z,98351.05
2019-04-23T15:04:28.941Z,98344.66
2019-04-23T15:07:07.533Z,98350.09
2019-04-23T15:09:33.884Z,98344.70
2019-04-23T15:12:09.989Z,98342.23
2019-04-23T15:14:45.951Z,98345.68
2019-04-23T15:17:13.141Z,98347.13
2019-04-23T15:19:49.344Z,98349.92
2019-04-23T15:22:20.046Z,98348.69
2019-04-23T15:27:45.307Z,98345.88
2019-04-23T15:28:03.939Z,98347.55
2019-04-23T15:29:52.582Z,98342.36
2019-04-23T15:32:44.172Z,98337.28
2019-04-23T15:35:16.510Z,98346.20
2019-04-23T15:37:58.243Z,98340.49
2019-04-23T15:40:15.222Z,98342.06
2019-04-23T15:42:53.833Z,98339.00
2019-04-23T15:47:58.807Z,98332.85
2019-04-23T15:50:28.383Z,98339.68
2019-04-23T15:52:58.871Z,98341.31
2019-04-23T15:55:27.681Z,98341.99
2019-04-23T16:00:36.632Z,98336.80
2019-04-23T16:02:43.431Z,98333.21
2019-04-23T16:05:16.884Z,98339.09
2019-04-23T16:08:07.468Z,98333.26
2019-04-23T16:10:58.693Z,98342.64
2019-04-23T16:13:32.460Z,98338.73
2019-04-23T16:15:59.571Z,98338.91
2019-04-23T16:18:45.308Z,98337.50
2019-04-23T16:23:43.843Z,98337.27
2019-04-23T16:26:24.238Z,98342.05
2019-04-23T16:29:23.142Z,98341.70
2019-04-23T16:36:54.765Z,98342.17
2019-04-23T16:39:22.222Z,98341.48
2019-04-23T16:42:02.074Z,98337.24
2019-04-23T16:44:38.202Z,98333.48
2019-04-23T16:47:21.718Z,98338.72
2019-04-23T16:49:57.586Z,98337.88
2019-04-23T16:52:07.933Z,98332.94
2019-04-23T16:54:51.812Z,98331.28
2019-04-23T17:00:15.167Z,98327.36
2019-04-23T17:02:24.605Z,98323.41
2019-04-23T17:04:57.946Z,98326.86
2019-04-23T17:07:24.147Z,98323.33
2019-04-23T17:10:09.066Z,98319.94
2019-04-23T17:12:38.687Z,98320.06
2019-04-23T17:15:27.390Z,98327.99
2019-04-23T17:17:38.057Z,98321.09
2019-04-23T17:20:16.254Z,98321.23
2019-04-23T17:22:47.988Z,98317.41
2019-04-23T17:25:17.604Z,98320.65
2019-04-23T17:28:09.006Z,98318.75
2019-04-23T17:30:28.129Z,98315.55
2019-04-23T17:33:13.494Z,98321.69
2019-04-23T17:36:07.108Z,98317.02
2019-04-23T17:38:37.674Z,98323.17
2019-04-23T17:41:29.330Z,98326.41
2019-04-23T17:44:01.442Z,98323.84
2019-04-23T17:46:32.405Z,98329.48
2019-04-23T17:49:04.356Z,98324.87
2019-04-23T17:51:34.489Z,98320.95
2019-04-23T17:54:17.374Z,98327.30
2019-04-23T17:56:55.933Z,98326.13
2019-04-23T17:59:24.721Z,98320.24
2019-04-23T18:02:24.281Z,98333.02
2019-04-23T18:04:27.458Z,98328.28
2019-04-23T18:06:56.327Z,98332.66
2019-04-23T18:09:37.179Z,98333.23
2019-04-23T18:12:16.878Z,98332.81
2019-04-23T18:14:30.845Z,98337.25
2019-04-23T18:17:12.889Z,98339.92
2019-04-23T18:20:05.290Z,98342.47
2019-04-23T18:28:00.601Z,98346.14
2019-04-23T18:31:09.602Z,98347.80
2019-04-23T18:36:26.192Z,98348.20
2019-04-23T18:39:04.900Z,98341.91
2019-04-23T18:41:35.220Z,98341.61
2019-04-23T18:44:18.484Z,98345.88
2019-04-23T18:46:42.162Z,98346.27
2019-04-23T18:49:33.142Z,98345.89
2019-04-23T18:51:51.264Z,98345.39
2019-04-23T18:54:23.555Z,98349.14
2019-04-23T18:59:37.276Z,98351.02
2019-04-23T19:02:20.049Z,98347.03
2019-04-23T19:05:03.485Z,98347.41
2019-04-23T19:07:54.778Z,98347.79
2019-04-23T19:10:31.859Z,98349.97
2019-04-23T19:13:09.677Z,98346.86
2019-04-23T19:18:18.721Z,98351.40
2019-04-23T19:23:36.733Z,98351.14
2019-04-23T19:26:00.096Z,98353.21
2019-04-23T19:31:26.299Z,98352.97
2019-04-23T19:34:21.410Z,98351.98
2019-04-23T19:41:55.685Z,98353.73
2019-04-23T19:47:06.904Z,98364.59
2019-04-23T19:49:28.280Z,98363.91
2019-04-23T19:57:22.816Z,98366.61
2019-04-23T19:59:46.332Z,98369.96
2019-04-23T20:02:21.832Z,98370.95
2019-04-23T20:04:50.785Z,98366.30
2019-04-23T20:09:51.606Z,98365.30
2019-04-23T20:12:28.252Z,98370.31
2019-04-23T20:15:07.319Z,98375.83
2019-04-23T20:20:26.469Z,98374.48
2019-04-23T20:22:48.485Z,98365.83
2019-04-23T20:27:52.313Z,98362.48
2019-04-23T20:36:00.660Z,98359.25
2019-04-23T20:41:14.675Z,98360.58
2019-04-23T20:43:46.791Z,98357.91
2019-04-23T20:46:06.574Z,98354.58
2019-04-23T20:48:48.962Z,98363.55
2019-04-23T20:51:18.736Z,98356.40
2019-04-23T20:56:25.405Z,98360.05
2019-04-23T21:01:38.609Z,98355.52
2019-04-23T21:04:13.764Z,98352.52
2019-04-23T21:06:48.803Z,98352.84
2019-04-23T21:12:04.888Z,98351.19
2019-04-23T21:14:41.429Z,98356.96
2019-04-23T21:17:05.373Z,98354.16
2019-04-23T21:19:30.791Z,98360.95
2019-04-23T21:22:09.076Z,98357.95
2019-04-23T21:24:42.865Z,98358.76
2019-04-23T21:27:21.703Z,98353.43
2019-04-23T21:32:33.691Z,98358.25
2019-04-23T21:35:04.544Z,98360.36
2019-04-23T21:37:49.732Z,98353.24
2019-04-23T21:41:00.983Z,98360.73
2019-04-23T21:43:25.001Z,98364.38
2019-04-23T21:46:02.464Z,98361.64
2019-04-23T21:48:42.037Z,98358.44
2019-04-23T21:51:15.810Z,98355.27
2019-04-23T21:53:32.879Z,98358.72
2019-04-23T21:58:49.162Z,98361.83
2019-04-23T22:01:28.088Z,98360.99
2019-04-23T22:16:53.924Z,98362.87
2019-04-23T22:21:50.919Z,98368.64
2019-04-23T22:24:12.242Z,98364.30
2019-04-23T22:27:02.799Z,98371.30
2019-04-23T22:32:04.390Z,98374.34
2019-04-23T22:34:39.853Z,98373.75
2019-04-23T22:37:17.847Z,98377.03
2019-04-23T22:39:46.960Z,98371.50
2019-04-23T22:42:36.266Z,98371.86
2019-04-23T22:44:59.146Z,98377.09
2019-04-23T22:47:28.129Z,98372.72
2019-04-23T22:50:02.676Z,98373.94
2019-04-23T22:52:31.487Z,98370.87
2019-04-23T22:55:07.902Z,98374.11
2019-04-23T22:57:59.908Z,98381.76
2019-04-23T23:00:13.369Z,98381.67
2019-04-23T23:02:58.339Z,98379.83
2019-04-23T23:05:53.815Z,98376.00
2019-04-23T23:08:11.461Z,98376.39
2019-04-23T23:10:44.650Z,98373.97
2019-04-23T23:13:10.976Z,98380.70
2019-04-23T23:15:57.511Z,98382.14
2019-04-23T23:18:40.555Z,98379.58
2019-04-23T23:23:34.664Z,98386.19
2019-04-23T23:28:38.110Z,98394.20
2019-04-23T23:31:07.055Z,98394.72
2019-04-23T23:39:05.522Z,98391.15
2019-04-23T23:44:08.155Z,98392.78
2019-04-23T23:47:16.288Z,98385.61
2019-04-23T23:49:08.269Z,98392.89
2019-04-23T23:51:39.877Z,98391.77
2019-04-23T23:54:08.197Z,98394.64
2019-04-23T23:56:39.116Z,98391.82
2019-04-23T23:59:27.024Z,98391.26
